sensor_id;sensor_type;location;lat;lon;timestamp;pressure;altitude;pressure_sealevel;temperature;humidity
67430;BME280;54298;52.076;5.264;2023-07-20T00:01:12;101388.0;;;18.2;80.34
67430;BME280;54298;52.076;5.264;2023-07-20T00:02:50;101387.0;;;18.16;80.49
67430;BME280;54298;52.076;5.264;2023-07-20T00:06:02;101388.0;;;18.14;80.41
67430;BME280;54298;52.076;5.264;2023-07-20T00:07:38;101386.0;;;18.0;80.83
67430;BME280;54298;52.076;5.264;2023-07-20T00:09:15;101390.0;;;17.91;80.64
67430;BME280;54298;52.076;5.264;2023-07-20T00:12:27;101386.0;;;17.87;80.91
67430;BME280;54298;52.076;5.264;2023-07-20T00:14:03;101382.0;;;17.84;80.78
67430;BME280;54298;52.076;5.264;2023-07-20T00:15:39;101382.0;;;17.79;81.23
67430;BME280;54298;52.076;5.264;2023-07-20T00:17:15;101382.0;;;17.77;81.23
67430;BME280;54298;52.076;5.264;2023-07-20T00:20:27;101381.0;;;17.77;81.45
67430;BME280;54298;52.076;5.264;2023-07-20T00:22:04;101386.0;;;17.7;81.66
67430;BME280;54298;52.076;5.264;2023-07-20T00:23:39;101384.0;;;17.68;81.41
67430;BME280;54298;52.076;5.264;2023-07-20T00:26:52;101386.0;;;17.59;81.66
67430;BME280;54298;52.076;5.264;2023-07-20T00:30:05;101386.0;;;17.5;82.44
67430;BME280;54298;52.076;5.264;2023-07-20T00:33:17;101388.0;;;17.34;82.77
67430;BME280;54298;52.076;5.264;2023-07-20T00:34:54;101381.0;;;17.27;83.11
67430;BME280;54298;52.076;5.264;2023-07-20T00:36:30;101378.0;;;17.2;83.42
67430;BME280;54298;52.076;5.264;2023-07-20T00:38:06;101380.0;;;17.11;83.74
67430;BME280;54298;52.076;5.264;2023-07-20T00:41:19;101380.0;;;17.14;83.72
67430;BME280;54298;52.076;5.264;2023-07-20T00:42:55;101377.0;;;17.22;83.18
67430;BME280;54298;52.076;5.264;2023-07-20T00:44:31;101384.0;;;17.23;83.37
67430;BME280;54298;52.076;5.264;2023-07-20T00:47:46;101386.0;;;17.18;83.45
67430;BME280;54298;52.076;5.264;2023-07-20T00:49:22;101385.0;;;17.06;84.47
67430;BME280;54298;52.076;5.264;2023-07-20T00:50:59;101383.0;;;17.05;84.53
67430;BME280;54298;52.076;5.264;2023-07-20T00:54:14;101380.0;;;17.06;84.43
67430;BME280;54298;52.076;5.264;2023-07-20T00:55:51;101381.0;;;17.05;83.85
67430;BME280;54298;52.076;5.264;2023-07-20T00:57:27;101377.0;;;16.96;84.2
67430;BME280;54298;52.076;5.264;2023-07-20T00:59:03;101383.0;;;17.0;84.01
67430;BME280;54298;52.076;5.264;2023-07-20T01:02:16;101380.0;;;16.96;83.92
67430;BME280;54298;52.076;5.264;2023-07-20T01:03:52;101383.0;;;16.95;84.01
67430;BME280;54298;52.076;5.264;2023-07-20T01:05:36;101383.0;;;16.84;84.21
67430;BME280;54298;52.076;5.264;2023-07-20T01:09:08;101382.0;;;16.84;84.05
67430;BME280;54298;52.076;5.264;2023-07-20T01:10:55;101380.0;;;16.77;84.45
67430;BME280;54298;52.076;5.264;2023-07-20T01:12:38;101380.0;;;16.86;84.15
67430;BME280;54298;52.076;5.264;2023-07-20T01:14:18;101374.0;;;16.81;84.1
67430;BME280;54298;52.076;5.264;2023-07-20T01:15:57;101381.0;;;16.63;84.65
67430;BME280;54298;52.076;5.264;2023-07-20T01:19:13;101381.0;;;16.52;85.13
67430;BME280;54298;52.076;5.264;2023-07-20T01:20:48;101381.0;;;16.43;85.37
67430;BME280;54298;52.076;5.264;2023-07-20T01:22:44;101382.0;;;16.34;85.9
67430;BME280;54298;52.076;5.264;2023-07-20T01:24:44;101384.0;;;16.36;85.81
67430;BME280;54298;52.076;5.264;2023-07-20T01:27:06;101386.0;;;16.39;85.66
67430;BME280;54298;52.076;5.264;2023-07-20T01:30:16;101389.0;;;16.32;85.69
67430;BME280;54298;52.076;5.264;2023-07-20T01:32:01;101391.0;;;16.43;84.89
67430;BME280;54298;52.076;5.264;2023-07-20T01:33:40;101393.0;;;16.18;86.07
67430;BME280;54298;52.076;5.264;2023-07-20T01:35:18;101387.0;;;16.16;86.1
67430;BME280;54298;52.076;5.264;2023-07-20T01:36:58;101390.0;;;16.2;86.04
67430;BME280;54298;52.076;5.264;2023-07-20T01:40:13;101392.0;;;16.13;85.91
67430;BME280;54298;52.076;5.264;2023-07-20T01:41:50;101394.0;;;16.09;86.45
67430;BME280;54298;52.076;5.264;2023-07-20T01:43:26;101395.0;;;16.11;86.42
67430;BME280;54298;52.076;5.264;2023-07-20T01:45:02;101395.0;;;16.11;86.54
67430;BME280;54298;52.076;5.264;2023-07-20T01:48:15;101390.0;;;16.18;86.2
67430;BME280;54298;52.076;5.264;2023-07-20T01:49:51;101399.0;;;15.9;87.13
67430;BME280;54298;52.076;5.264;2023-07-20T01:51:27;101395.0;;;15.98;86.58
67430;BME280;54298;52.076;5.264;2023-07-20T01:54:40;101398.0;;;15.95;86.92
67430;BME280;54298;52.076;5.264;2023-07-20T01:56:16;101400.0;;;15.96;86.59
67430;BME280;54298;52.076;5.264;2023-07-20T01:57:52;101399.0;;;15.93;86.7
67430;BME280;54298;52.076;5.264;2023-07-20T02:01:05;101398.0;;;15.79;87.24
67430;BME280;54298;52.076;5.264;2023-07-20T02:02:41;101401.0;;;15.88;86.74
67430;BME280;54298;52.076;5.264;2023-07-20T02:04:17;101397.0;;;15.91;86.38
67430;BME280;54298;52.076;5.264;2023-07-20T02:07:29;101401.0;;;15.88;86.23
67430;BME280;54298;52.076;5.264;2023-07-20T02:09:06;101400.0;;;15.72;87.12
67430;BME280;54298;52.076;5.264;2023-07-20T02:10:42;101403.0;;;15.65;87.61
67430;BME280;54298;52.076;5.264;2023-07-20T02:12:21;101397.0;;;15.63;87.7
67430;BME280;54298;52.076;5.264;2023-07-20T02:15:33;101397.0;;;15.76;87.17
67430;BME280;54298;52.076;5.264;2023-07-20T02:17:09;101395.0;;;15.73;87.24
67430;BME280;54298;52.076;5.264;2023-07-20T02:18:45;101393.0;;;15.71;87.47
67430;BME280;54298;52.076;5.264;2023-07-20T02:21:58;101392.0;;;15.81;87.19
67430;BME280;54298;52.076;5.264;2023-07-20T02:23:34;101398.0;;;15.78;87.19
67430;BME280;54298;52.076;5.264;2023-07-20T02:25:10;101399.0;;;15.83;86.39
67430;BME280;54298;52.076;5.264;2023-07-20T02:28:22;101399.0;;;15.69;86.83
67430;BME280;54298;52.076;5.264;2023-07-20T02:29:58;101398.0;;;15.6;87.29
67430;BME280;54298;52.076;5.264;2023-07-20T02:31:34;101396.0;;;15.59;87.27
67430;BME280;54298;52.076;5.264;2023-07-20T02:33:10;101391.0;;;15.53;87.51
67430;BME280;54298;52.076;5.264;2023-07-20T02:36:22;101388.0;;;15.47;87.41
67430;BME280;54298;52.076;5.264;2023-07-20T02:37:59;101397.0;;;15.51;87.15
67430;BME280;54298;52.076;5.264;2023-07-20T02:39:35;101397.0;;;15.47;87.22
67430;BME280;54298;52.076;5.264;2023-07-20T02:42:49;101401.0;;;15.5;86.93
67430;BME280;54298;52.076;5.264;2023-07-20T02:44:25;101402.0;;;15.51;86.85
67430;BME280;54298;52.076;5.264;2023-07-20T02:46:01;101405.0;;;15.54;86.53
67430;BME280;54298;52.076;5.264;2023-07-20T02:49:13;101410.0;;;15.37;87.45
67430;BME280;54298;52.076;5.264;2023-07-20T02:50:49;101405.0;;;15.34;87.8
67430;BME280;54298;52.076;5.264;2023-07-20T02:52:26;101406.0;;;15.22;88.81
67430;BME280;54298;52.076;5.264;2023-07-20T02:55:38;101413.0;;;15.23;88.76
67430;BME280;54298;52.076;5.264;2023-07-20T02:57:14;101414.0;;;15.38;87.93
67430;BME280;54298;52.076;5.264;2023-07-20T02:58:50;101414.0;;;15.38;87.79
67430;BME280;54298;52.076;5.264;2023-07-20T03:00:27;101422.0;;;15.3;88.16
67430;BME280;54298;52.076;5.264;2023-07-20T03:03:39;101424.0;;;15.34;87.77
67430;BME280;54298;52.076;5.264;2023-07-20T03:05:15;101426.0;;;15.41;87.26
67430;BME280;54298;52.076;5.264;2023-07-20T03:06:52;101427.0;;;15.38;87.36
67430;BME280;54298;52.076;5.264;2023-07-20T03:10:05;101428.0;;;15.32;87.09
67430;BME280;54298;52.076;5.264;2023-07-20T03:11:41;101430.0;;;15.31;87.07
67430;BME280;54298;52.076;5.264;2023-07-20T03:13:17;101433.0;;;15.28;86.99
67430;BME280;54298;52.076;5.264;2023-07-20T03:16:29;101436.0;;;15.3;86.84
67430;BME280;54298;52.076;5.264;2023-07-20T03:18:05;101431.0;;;15.32;86.13
67430;BME280;54298;52.076;5.264;2023-07-20T03:19:41;101438.0;;;15.26;86.11
67430;BME280;54298;52.076;5.264;2023-07-20T03:21:18;101439.0;;;15.12;86.26
67430;BME280;54298;52.076;5.264;2023-07-20T03:24:30;101440.0;;;15.08;86.21
67430;BME280;54298;52.076;5.264;2023-07-20T03:26:06;101440.0;;;15.21;85.66
67430;BME280;54298;52.076;5.264;2023-07-20T03:27:42;101439.0;;;15.13;85.81
67430;BME280;54298;52.076;5.264;2023-07-20T03:30:55;101435.0;;;15.13;85.85
67430;BME280;54298;52.076;5.264;2023-07-20T03:32:31;101434.0;;;15.05;85.9
67430;BME280;54298;52.076;5.264;2023-07-20T03:34:07;101436.0;;;14.91;86.33
67430;BME280;54298;52.076;5.264;2023-07-20T03:37:20;101437.0;;;14.9;86.55
67430;BME280;54298;52.076;5.264;2023-07-20T03:38:56;101439.0;;;14.81;86.56
67430;BME280;54298;52.076;5.264;2023-07-20T03:40:32;101438.0;;;14.9;85.55
67430;BME280;54298;52.076;5.264;2023-07-20T03:43:44;101442.0;;;14.89;85.29
67430;BME280;54298;52.076;5.264;2023-07-20T03:45:20;101441.0;;;14.74;85.65
67430;BME280;54298;52.076;5.264;2023-07-20T03:46:56;101445.0;;;14.7;85.62
67430;BME280;54298;52.076;5.264;2023-07-20T03:48:33;101446.0;;;14.68;85.52
67430;BME280;54298;52.076;5.264;2023-07-20T03:51:46;101446.0;;;14.62;85.67
67430;BME280;54298;52.076;5.264;2023-07-20T03:54:58;101442.0;;;14.57;85.46
67430;BME280;54298;52.076;5.264;2023-07-20T03:58:10;101447.0;;;14.48;85.39
67430;BME280;54298;52.076;5.264;2023-07-20T03:59:46;101446.0;;;14.35;86.1
67430;BME280;54298;52.076;5.264;2023-07-20T04:01:24;101447.0;;;14.34;86.23
67430;BME280;54298;52.076;5.264;2023-07-20T04:04:36;101446.0;;;14.32;86.36
67430;BME280;54298;52.076;5.264;2023-07-20T04:06:13;101457.0;;;14.37;86.33
67430;BME280;54298;52.076;5.264;2023-07-20T04:07:49;101455.0;;;14.29;86.74
67430;BME280;54298;52.076;5.264;2023-07-20T04:09:25;101456.0;;;14.34;86.5
67430;BME280;54298;52.076;5.264;2023-07-20T04:12:37;101455.0;;;14.44;85.88
67430;BME280;54298;52.076;5.264;2023-07-20T04:14:13;101460.0;;;14.48;85.41
67430;BME280;54298;52.076;5.264;2023-07-20T04:15:49;101461.0;;;14.39;85.76
67430;BME280;54298;52.076;5.264;2023-07-20T04:19:01;101460.0;;;14.47;85.2
67430;BME280;54298;52.076;5.264;2023-07-20T04:20:37;101461.0;;;14.44;85.44
67430;BME280;54298;52.076;5.264;2023-07-20T04:22:13;101463.0;;;14.45;85.59
67430;BME280;54298;52.076;5.264;2023-07-20T04:25:26;101465.0;;;14.38;85.85
67430;BME280;54298;52.076;5.264;2023-07-20T04:27:02;101466.0;;;14.32;86.09
67430;BME280;54298;52.076;5.264;2023-07-20T04:28:38;101466.0;;;14.36;86.27
67430;BME280;54298;52.076;5.264;2023-07-20T04:31:53;101465.0;;;14.35;86.47
67430;BME280;54298;52.076;5.264;2023-07-20T04:33:29;101472.0;;;14.41;86.32
67430;BME280;54298;52.076;5.264;2023-07-20T04:35:06;101473.0;;;14.4;86.38
67430;BME280;54298;52.076;5.264;2023-07-20T04:36:42;101472.0;;;14.33;86.52
67430;BME280;54298;52.076;5.264;2023-07-20T04:39:56;101472.0;;;14.45;86.14
67430;BME280;54298;52.076;5.264;2023-07-20T04:41:32;101472.0;;;14.47;85.49
67430;BME280;54298;52.076;5.264;2023-07-20T04:43:08;101471.0;;;14.27;85.47
67430;BME280;54298;52.076;5.264;2023-07-20T04:46:20;101472.0;;;14.43;85.22
67430;BME280;54298;52.076;5.264;2023-07-20T04:47:56;101473.0;;;14.56;84.23
67430;BME280;54298;52.076;5.264;2023-07-20T04:49:32;101475.0;;;14.57;84.27
67430;BME280;54298;52.076;5.264;2023-07-20T04:52:45;101472.0;;;14.42;84.7
67430;BME280;54298;52.076;5.264;2023-07-20T04:54:21;101473.0;;;14.44;84.82
67430;BME280;54298;52.076;5.264;2023-07-20T04:55:57;101475.0;;;14.36;85.3
67430;BME280;54298;52.076;5.264;2023-07-20T04:57:33;101474.0;;;14.2;86.55
67430;BME280;54298;52.076;5.264;2023-07-20T05:00:45;101478.0;;;14.34;86.39
67430;BME280;54298;52.076;5.264;2023-07-20T05:02:21;101482.0;;;14.32;86.61
67430;BME280;54298;52.076;5.264;2023-07-20T05:03:57;101480.0;;;14.46;86.13
67430;BME280;54298;52.076;5.264;2023-07-20T05:07:10;101477.0;;;14.47;86.0
67430;BME280;54298;52.076;5.264;2023-07-20T05:08:46;101478.0;;;14.57;85.72
67430;BME280;54298;52.076;5.264;2023-07-20T05:10:23;101480.0;;;14.48;86.21
67430;BME280;54298;52.076;5.264;2023-07-20T05:13:36;101480.0;;;14.44;86.91
67430;BME280;54298;52.076;5.264;2023-07-20T05:15:12;101482.0;;;14.49;86.85
67430;BME280;54298;52.076;5.264;2023-07-20T05:16:48;101481.0;;;14.48;87.02
67430;BME280;54298;52.076;5.264;2023-07-20T05:18:25;101481.0;;;14.57;87.2
67430;BME280;54298;52.076;5.264;2023-07-20T05:21:38;101477.0;;;14.69;86.66
67430;BME280;54298;52.076;5.264;2023-07-20T05:23:14;101482.0;;;14.81;86.91
67430;BME280;54298;52.076;5.264;2023-07-20T05:24:50;101484.0;;;14.79;86.71
67430;BME280;54298;52.076;5.264;2023-07-20T05:28:03;101486.0;;;14.91;87.7
67430;BME280;54298;52.076;5.264;2023-07-20T05:29:43;101485.0;;;15.07;86.35
67430;BME280;54298;52.076;5.264;2023-07-20T05:31:20;101482.0;;;15.09;86.13
67430;BME280;54298;52.076;5.264;2023-07-20T05:34:32;101480.0;;;15.16;86.55
67430;BME280;54298;52.076;5.264;2023-07-20T05:36:08;101480.0;;;15.23;86.72
67430;BME280;54298;52.076;5.264;2023-07-20T05:37:44;101475.0;;;15.35;87.36
67430;BME280;54298;52.076;5.264;2023-07-20T05:39:21;101481.0;;;15.43;87.63
67430;BME280;54298;52.076;5.264;2023-07-20T05:42:36;101476.0;;;15.57;87.0
67430;BME280;54298;52.076;5.264;2023-07-20T05:44:12;101480.0;;;15.73;86.54
67430;BME280;54298;52.076;5.264;2023-07-20T05:45:49;101481.0;;;15.62;86.44
67430;BME280;54298;52.076;5.264;2023-07-20T05:49:01;101480.0;;;15.69;86.06
67430;BME280;54298;52.076;5.264;2023-07-20T05:50:38;101472.0;;;15.96;85.62
67430;BME280;54298;52.076;5.264;2023-07-20T05:52:18;101474.0;;;16.0;85.33
67430;BME280;54298;52.076;5.264;2023-07-20T05:55:31;101473.0;;;16.13;84.69
67430;BME280;54298;52.076;5.264;2023-07-20T05:57:07;101471.0;;;16.15;84.21
67430;BME280;54298;52.076;5.264;2023-07-20T05:58:43;101474.0;;;16.22;83.55
67430;BME280;54298;52.076;5.264;2023-07-20T06:00:20;101478.0;;;16.34;82.82
67430;BME280;54298;52.076;5.264;2023-07-20T06:03:32;101478.0;;;16.34;82.39
67430;BME280;54298;52.076;5.264;2023-07-20T06:05:08;101478.0;;;16.52;81.91
67430;BME280;54298;52.076;5.264;2023-07-20T06:06:45;101478.0;;;16.5;81.95
67430;BME280;54298;52.076;5.264;2023-07-20T06:09:57;101481.0;;;16.62;81.84
67430;BME280;54298;52.076;5.264;2023-07-20T06:11:33;101485.0;;;16.65;80.81
67430;BME280;54298;52.076;5.264;2023-07-20T06:13:09;101481.0;;;16.8;80.0
67430;BME280;54298;52.076;5.264;2023-07-20T06:16:22;101485.0;;;16.66;79.16
67430;BME280;54298;52.076;5.264;2023-07-20T06:17:58;101487.0;;;16.64;78.66
67430;BME280;54298;52.076;5.264;2023-07-20T06:19:34;101485.0;;;16.75;78.44
67430;BME280;54298;52.076;5.264;2023-07-20T06:21:11;101485.0;;;16.95;77.75
67430;BME280;54298;52.076;5.264;2023-07-20T06:24:23;101487.0;;;17.02;77.47
67430;BME280;54298;52.076;5.264;2023-07-20T06:25:59;101487.0;;;16.82;76.23
67430;BME280;54298;52.076;5.264;2023-07-20T06:27:35;101488.0;;;16.7;76.11
67430;BME280;54298;52.076;5.264;2023-07-20T06:30:48;101494.0;;;16.93;75.56
67430;BME280;54298;52.076;5.264;2023-07-20T06:32:24;101496.0;;;16.95;76.34
67430;BME280;54298;52.076;5.264;2023-07-20T06:34:00;101495.0;;;17.09;75.38
67430;BME280;54298;52.076;5.264;2023-07-20T06:37:12;101495.0;;;17.12;75.11
67430;BME280;54298;52.076;5.264;2023-07-20T06:38:48;101501.0;;;17.32;74.44
67430;BME280;54298;52.076;5.264;2023-07-20T06:40:24;101499.0;;;17.5;73.91
67430;BME280;54298;52.076;5.264;2023-07-20T06:43:37;101503.0;;;17.36;73.72
67430;BME280;54298;52.076;5.264;2023-07-20T06:45:13;101505.0;;;17.59;73.56
67430;BME280;54298;52.076;5.264;2023-07-20T06:46:49;101502.0;;;17.54;72.86
67430;BME280;54298;52.076;5.264;2023-07-20T06:48:25;101502.0;;;17.45;72.39
67430;BME280;54298;52.076;5.264;2023-07-20T06:51:37;101505.0;;;17.56;71.61
67430;BME280;54298;52.076;5.264;2023-07-20T06:53:13;101503.0;;;17.77;71.3
67430;BME280;54298;52.076;5.264;2023-07-20T06:54:49;101505.0;;;17.78;71.42
67430;BME280;54298;52.076;5.264;2023-07-20T06:58:02;101508.0;;;17.95;71.0
67430;BME280;54298;52.076;5.264;2023-07-20T06:59:37;101511.0;;;17.66;70.8
67430;BME280;54298;52.076;5.264;2023-07-20T07:01:14;101510.0;;;17.89;69.39
67430;BME280;54298;52.076;5.264;2023-07-20T07:04:26;101507.0;;;18.02;69.41
67430;BME280;54298;52.076;5.264;2023-07-20T07:06:02;101510.0;;;18.02;69.47
67430;BME280;54298;52.076;5.264;2023-07-20T07:07:38;101512.0;;;18.14;68.5
67430;BME280;54298;52.076;5.264;2023-07-20T07:10:51;101508.0;;;18.2;68.64
67430;BME280;54298;52.076;5.264;2023-07-20T07:12:28;101509.0;;;18.27;68.33
67430;BME280;54298;52.076;5.264;2023-07-20T07:14:04;101510.0;;;18.5;67.36
67430;BME280;54298;52.076;5.264;2023-07-20T07:15:40;101507.0;;;18.36;67.63
67430;BME280;54298;52.076;5.264;2023-07-20T07:18:52;101513.0;;;18.29;66.41
67430;BME280;54298;52.076;5.264;2023-07-20T07:20:28;101516.0;;;18.47;66.89
67430;BME280;54298;52.076;5.264;2023-07-20T07:22:04;101511.0;;;18.56;65.72
67430;BME280;54298;52.076;5.264;2023-07-20T07:25:17;101512.0;;;18.52;65.88
67430;BME280;54298;52.076;5.264;2023-07-20T07:26:53;101514.0;;;18.61;65.7
67430;BME280;54298;52.076;5.264;2023-07-20T07:28:29;101512.0;;;18.71;65.81
67430;BME280;54298;52.076;5.264;2023-07-20T07:31:43;101516.0;;;18.66;65.0
67430;BME280;54298;52.076;5.264;2023-07-20T07:33:19;101519.0;;;18.77;65.27
67430;BME280;54298;52.076;5.264;2023-07-20T07:34:55;101515.0;;;18.64;64.59
67430;BME280;54298;52.076;5.264;2023-07-20T07:36:33;101517.0;;;18.84;64.22
67430;BME280;54298;52.076;5.264;2023-07-20T07:39:45;101513.0;;;18.84;64.14
67430;BME280;54298;52.076;5.264;2023-07-20T07:41:21;101516.0;;;18.91;64.27
67430;BME280;54298;52.076;5.264;2023-07-20T07:42:57;101514.0;;;18.79;64.56
67430;BME280;54298;52.076;5.264;2023-07-20T07:46:09;101516.0;;;18.87;64.47
67430;BME280;54298;52.076;5.264;2023-07-20T07:47:45;101519.0;;;18.86;61.67
67430;BME280;54298;52.076;5.264;2023-07-20T07:49:21;101515.0;;;18.91;61.54
67430;BME280;54298;52.076;5.264;2023-07-20T07:52:33;101522.0;;;18.93;62.38
67430;BME280;54298;52.076;5.264;2023-07-20T07:54:10;101517.0;;;18.95;60.61
67430;BME280;54298;52.076;5.264;2023-07-20T07:55:47;101520.0;;;19.09;60.08
67430;BME280;54298;52.076;5.264;2023-07-20T07:57:23;101521.0;;;19.02;59.62
67430;BME280;54298;52.076;5.264;2023-07-20T08:00:35;101521.0;;;19.12;59.36
67430;BME280;54298;52.076;5.264;2023-07-20T08:02:11;101523.0;;;19.14;59.48
67430;BME280;54298;52.076;5.264;2023-07-20T08:03:47;101519.0;;;19.13;58.5
67430;BME280;54298;52.076;5.264;2023-07-20T08:07:02;101516.0;;;19.22;55.57
67430;BME280;54298;52.076;5.264;2023-07-20T08:08:37;101519.0;;;19.28;56.51
67430;BME280;54298;52.076;5.264;2023-07-20T08:10:14;101517.0;;;19.27;57.03
67430;BME280;54298;52.076;5.264;2023-07-20T08:13:26;101518.0;;;18.91;57.92
67430;BME280;54298;52.076;5.264;2023-07-20T08:15:02;101514.0;;;19.03;57.81
67430;BME280;54298;52.076;5.264;2023-07-20T08:16:38;101515.0;;;19.0;57.46
67430;BME280;54298;52.076;5.264;2023-07-20T08:19:50;101512.0;;;18.88;57.49
67430;BME280;54298;52.076;5.264;2023-07-20T08:21:26;101518.0;;;18.87;55.32
67430;BME280;54298;52.076;5.264;2023-07-20T08:23:03;101514.0;;;18.84;54.22
67430;BME280;54298;52.076;5.264;2023-07-20T08:24:39;101514.0;;;19.2;52.72
67430;BME280;54298;52.076;5.264;2023-07-20T08:27:52;101518.0;;;19.13;52.96
67430;BME280;54298;52.076;5.264;2023-07-20T08:29:28;101514.0;;;19.12;52.09
67430;BME280;54298;52.076;5.264;2023-07-20T08:31:05;101521.0;;;19.22;52.52
67430;BME280;54298;52.076;5.264;2023-07-20T08:34:18;101523.0;;;19.45;52.09
67430;BME280;54298;52.076;5.264;2023-07-20T08:35:55;101522.0;;;19.62;51.47
67430;BME280;54298;52.076;5.264;2023-07-20T08:37:31;101523.0;;;19.5;51.69
67430;BME280;54298;52.076;5.264;2023-07-20T08:40:44;101524.0;;;19.7;50.7
67430;BME280;54298;52.076;5.264;2023-07-20T08:42:22;101528.0;;;19.88;51.4
67430;BME280;54298;52.076;5.264;2023-07-20T08:43:59;101525.0;;;20.0;51.4
67430;BME280;54298;52.076;5.264;2023-07-20T08:45:38;101527.0;;;19.88;51.29
67430;BME280;54298;52.076;5.264;2023-07-20T08:48:53;101527.0;;;19.77;49.27
67430;BME280;54298;52.076;5.264;2023-07-20T08:50:31;101526.0;;;20.0;49.24
67430;BME280;54298;52.076;5.264;2023-07-20T08:52:08;101530.0;;;20.05;48.62
67430;BME280;54298;52.076;5.264;2023-07-20T08:55:23;101527.0;;;20.07;48.01
67430;BME280;54298;52.076;5.264;2023-07-20T08:57:02;101524.0;;;20.07;47.26
67430;BME280;54298;52.076;5.264;2023-07-20T09:00:21;101524.0;;;20.13;46.76
67430;BME280;54298;52.076;5.264;2023-07-20T09:03:34;101526.0;;;20.13;45.87
67430;BME280;54298;52.076;5.264;2023-07-20T09:05:11;101518.0;;;20.18;46.79
67430;BME280;54298;52.076;5.264;2023-07-20T09:06:49;101519.0;;;20.2;44.55
67430;BME280;54298;52.076;5.264;2023-07-20T09:10:01;101514.0;;;20.11;41.29
67430;BME280;54298;52.076;5.264;2023-07-20T09:11:38;101518.0;;;20.11;40.03
67430;BME280;54298;52.076;5.264;2023-07-20T09:13:16;101513.0;;;20.27;40.85
67430;BME280;54298;52.076;5.264;2023-07-20T09:14:51;101519.0;;;20.16;40.0
67430;BME280;54298;52.076;5.264;2023-07-20T09:18:04;101517.0;;;20.34;39.71
67430;BME280;54298;52.076;5.264;2023-07-20T09:19:45;101519.0;;;20.2;38.67
67430;BME280;54298;52.076;5.264;2023-07-20T09:21:22;101523.0;;;20.28;40.03
67430;BME280;54298;52.076;5.264;2023-07-20T09:24:34;101521.0;;;20.32;41.27
67430;BME280;54298;52.076;5.264;2023-07-20T09:26:11;101521.0;;;20.34;41.87
67430;BME280;54298;52.076;5.264;2023-07-20T09:27:48;101527.0;;;20.34;42.18
67430;BME280;54298;52.076;5.264;2023-07-20T09:29:25;101521.0;;;20.47;42.46
67430;BME280;54298;52.076;5.264;2023-07-20T09:32:52;101522.0;;;20.55;42.47
67430;BME280;54298;52.076;5.264;2023-07-20T09:34:28;101519.0;;;20.55;42.79
67430;BME280;54298;52.076;5.264;2023-07-20T09:36:05;101521.0;;;20.57;42.9
67430;BME280;54298;52.076;5.264;2023-07-20T09:39:22;101517.0;;;20.57;43.35
67430;BME280;54298;52.076;5.264;2023-07-20T09:40:58;101515.0;;;20.57;43.38
67430;BME280;54298;52.076;5.264;2023-07-20T09:42:35;101512.0;;;20.72;44.29
67430;BME280;54298;52.076;5.264;2023-07-20T09:44:14;101511.0;;;20.66;44.3
67430;BME280;54298;52.076;5.264;2023-07-20T09:47:36;101514.0;;;20.86;44.44
67430;BME280;54298;52.076;5.264;2023-07-20T09:49:12;101513.0;;;20.93;44.23
67430;BME280;54298;52.076;5.264;2023-07-20T09:50:50;101510.0;;;21.09;43.75
67430;BME280;54298;52.076;5.264;2023-07-20T09:52:27;101510.0;;;21.15;44.12
67430;BME280;54298;52.076;5.264;2023-07-20T09:55:41;101506.0;;;21.15;43.84
67430;BME280;54298;52.076;5.264;2023-07-20T09:57:18;101503.0;;;21.09;44.04
67430;BME280;54298;52.076;5.264;2023-07-20T09:58:57;101501.0;;;21.16;43.68
67430;BME280;54298;52.076;5.264;2023-07-20T10:02:20;101499.0;;;21.1;43.9
67430;BME280;54298;52.076;5.264;2023-07-20T10:03:59;101497.0;;;21.02;44.39
67430;BME280;54298;52.076;5.264;2023-07-20T10:05:42;101497.0;;;21.12;43.79
67430;BME280;54298;52.076;5.264;2023-07-20T10:07:21;101499.0;;;21.23;43.53
67430;BME280;54298;52.076;5.264;2023-07-20T10:10:41;101496.0;;;21.35;43.41
67430;BME280;54298;52.076;5.264;2023-07-20T10:12:19;101499.0;;;21.45;43.44
67430;BME280;54298;52.076;5.264;2023-07-20T10:13:59;101496.0;;;21.51;43.12
67430;BME280;54298;52.076;5.264;2023-07-20T10:15:45;101492.0;;;21.56;42.89
67430;BME280;54298;52.076;5.264;2023-07-20T10:19:05;101493.0;;;21.53;42.93
67430;BME280;54298;52.076;5.264;2023-07-20T10:20:43;101500.0;;;21.44;42.15
67430;BME280;54298;52.076;5.264;2023-07-20T10:22:25;101501.0;;;21.36;42.79
67430;BME280;54298;52.076;5.264;2023-07-20T10:24:07;101495.0;;;21.6;42.91
67430;BME280;54298;52.076;5.264;2023-07-20T10:27:23;101490.0;;;21.64;42.5
67430;BME280;54298;52.076;5.264;2023-07-20T10:29:00;101497.0;;;21.7;42.47
67430;BME280;54298;52.076;5.264;2023-07-20T10:30:37;101490.0;;;21.75;42.66
67430;BME280;54298;52.076;5.264;2023-07-20T10:32:14;101485.0;;;21.71;41.91
67430;BME280;54298;52.076;5.264;2023-07-20T10:35:27;101491.0;;;21.66;41.71
67430;BME280;54298;52.076;5.264;2023-07-20T10:37:04;101487.0;;;21.48;42.7
67430;BME280;54298;52.076;5.264;2023-07-20T10:38:41;101487.0;;;21.64;42.25
67430;BME280;54298;52.076;5.264;2023-07-20T10:42:13;101487.0;;;21.69;43.01
67430;BME280;54298;52.076;5.264;2023-07-20T10:43:50;101486.0;;;21.78;42.68
67430;BME280;54298;52.076;5.264;2023-07-20T10:45:52;101485.0;;;21.79;42.22
67430;BME280;54298;52.076;5.264;2023-07-20T10:47:28;101487.0;;;21.76;41.88
67430;BME280;54298;52.076;5.264;2023-07-20T10:49:20;101483.0;;;21.62;41.78
67430;BME280;54298;52.076;5.264;2023-07-20T10:53:04;101478.0;;;21.76;42.47
67430;BME280;54298;52.076;5.264;2023-07-20T10:54:48;101475.0;;;21.97;41.78
67430;BME280;54298;52.076;5.264;2023-07-20T10:56:27;101475.0;;;22.06;41.35
67430;BME280;54298;52.076;5.264;2023-07-20T10:58:08;101473.0;;;22.15;41.45
67430;BME280;54298;52.076;5.264;2023-07-20T10:59:46;101470.0;;;22.2;40.98
67430;BME280;54298;52.076;5.264;2023-07-20T11:03:04;101468.0;;;22.34;41.29
67430;BME280;54298;52.076;5.264;2023-07-20T11:04:41;101474.0;;;22.3;41.22
67430;BME280;54298;52.076;5.264;2023-07-20T11:06:33;101472.0;;;22.34;41.26
67430;BME280;54298;52.076;5.264;2023-07-20T11:08:11;101474.0;;;22.35;42.46
67430;BME280;54298;52.076;5.264;2023-07-20T11:11:25;101474.0;;;22.36;41.18
67430;BME280;54298;52.076;5.264;2023-07-20T11:13:19;101473.0;;;22.49;40.93